KPBI/PBI METAR and TAF weather

Enter ICAO airport designator
Station Type Date Time Source
KPBI METAR 2021/07/26 12:53 UTC NOAA

KPBI 261253Z 17006KT 10SM FEW030 FEW080 29/24 A2997 RMK AO2 SLP148 T02890244 $


Station Type Date Time Source
KPBI Decoded METAR 2021/07/26 12:53 UTC NOAA

PALM BEACH INTERNATIONAL, FL, United States (KPBI) 26-41N 80-06W 6M
Jul 26, 2021 - 08:53 AM EDT / 2021.07.26 1253 UTC
Wind: from the S (170 degrees) at 7 MPH (6 KT):0
Visibility: 10 mile(s):0
Sky conditions: mostly clear
Temperature: 84.0 F (28.9 C)
Dew Point: 75.9 F (24.4 C)
Relative Humidity: 76%
Pressure (altimeter): 29.97 in. Hg (1014 hPa)
ob: KPBI 261253Z 17006KT 10SM FEW030 FEW080 29/24 A2997 RMK AO2 SLP148 T02890244
cycle: 13

Station Type Date Time Source
KPBI TAF 2021/07/26 12:39 UTC NOAA

TAF KPBI 261131Z 2612/2712 VRB05KT P6SM VCSH SCT030 BKN045
FM261500 14010KT P6SM VCTS SCT030CB BKN060
FM262300 16006KT P6SM VCSH FEW025 SCT050
FM270100 VRB04KT P6SM SCT030 BKN070

Example: see airport list